sensor_id;sensor_type;location;lat;lon;timestamp;P1;durP1;ratioP1;P2;durP2;ratioP2
22417;SDS011;11376;50.932;4.442;2023-04-08T00:01:37;24.60;;;7.47;;
22417;SDS011;11376;50.932;4.442;2023-04-08T00:04:02;27.37;;;7.30;;
22417;SDS011;11376;50.932;4.442;2023-04-08T00:06:28;24.07;;;7.73;;
22417;SDS011;11376;50.932;4.442;2023-04-08T00:08:55;23.97;;;6.70;;
22417;SDS011;11376;50.932;4.442;2023-04-08T00:11:21;27.07;;;7.33;;
22417;SDS011;11376;50.932;4.442;2023-04-08T00:13:46;19.53;;;6.73;;
22417;SDS011;11376;50.932;4.442;2023-04-08T00:16:12;23.70;;;7.33;;
22417;SDS011;11376;50.932;4.442;2023-04-08T00:18:38;23.80;;;8.17;;
22417;SDS011;11376;50.932;4.442;2023-04-08T00:21:03;29.17;;;8.33;;
22417;SDS011;11376;50.932;4.442;2023-04-08T00:23:29;22.53;;;7.80;;
22417;SDS011;11376;50.932;4.442;2023-04-08T00:25:54;22.80;;;7.67;;
22417;SDS011;11376;50.932;4.442;2023-04-08T00:28:20;20.47;;;7.87;;
22417;SDS011;11376;50.932;4.442;2023-04-08T00:30:46;27.43;;;7.30;;
22417;SDS011;11376;50.932;4.442;2023-04-08T00:33:11;30.57;;;8.10;;
22417;SDS011;11376;50.932;4.442;2023-04-08T00:35:37;21.77;;;7.70;;
22417;SDS011;11376;50.932;4.442;2023-04-08T00:38:02;32.00;;;7.43;;
22417;SDS011;11376;50.932;4.442;2023-04-08T00:40:31;22.97;;;7.40;;
22417;SDS011;11376;50.932;4.442;2023-04-08T00:42:58;27.57;;;7.50;;
22417;SDS011;11376;50.932;4.442;2023-04-08T00:45:23;28.23;;;8.17;;
22417;SDS011;11376;50.932;4.442;2023-04-08T00:47:49;26.77;;;8.07;;
22417;SDS011;11376;50.932;4.442;2023-04-08T00:50:16;25.57;;;7.57;;
22417;SDS011;11376;50.932;4.442;2023-04-08T00:52:44;26.83;;;7.57;;
22417;SDS011;11376;50.932;4.442;2023-04-08T00:55:09;30.10;;;8.00;;
22417;SDS011;11376;50.932;4.442;2023-04-08T00:57:35;24.77;;;7.70;;
22417;SDS011;11376;50.932;4.442;2023-04-08T01:00:01;33.80;;;8.37;;
22417;SDS011;11376;50.932;4.442;2023-04-08T01:05:33;38.73;;;9.70;;
22417;SDS011;11376;50.932;4.442;2023-04-08T01:08:04;25.23;;;9.10;;
22417;SDS011;11376;50.932;4.442;2023-04-08T01:10:32;28.20;;;9.43;;
22417;SDS011;11376;50.932;4.442;2023-04-08T01:13:00;26.57;;;9.17;;
22417;SDS011;11376;50.932;4.442;2023-04-08T01:15:30;29.70;;;9.43;;
22417;SDS011;11376;50.932;4.442;2023-04-08T01:17:59;31.60;;;9.60;;
22417;SDS011;11376;50.932;4.442;2023-04-08T01:20:26;30.37;;;9.67;;
22417;SDS011;11376;50.932;4.442;2023-04-08T01:25:35;26.70;;;9.33;;
22417;SDS011;11376;50.932;4.442;2023-04-08T01:28:06;30.80;;;8.87;;
22417;SDS011;11376;50.932;4.442;2023-04-08T01:30:37;29.27;;;9.60;;
22417;SDS011;11376;50.932;4.442;2023-04-08T01:33:04;29.93;;;10.00;;
22417;SDS011;11376;50.932;4.442;2023-04-08T01:35:30;32.43;;;10.07;;
22417;SDS011;11376;50.932;4.442;2023-04-08T01:37:58;26.17;;;10.17;;
22417;SDS011;11376;50.932;4.442;2023-04-08T01:40:25;31.37;;;10.07;;
22417;SDS011;11376;50.932;4.442;2023-04-08T01:42:53;29.67;;;10.60;;
22417;SDS011;11376;50.932;4.442;2023-04-08T01:45:20;30.97;;;9.80;;
22417;SDS011;11376;50.932;4.442;2023-04-08T01:47:47;29.53;;;11.03;;
22417;SDS011;11376;50.932;4.442;2023-04-08T01:50:14;33.60;;;11.87;;
22417;SDS011;11376;50.932;4.442;2023-04-08T01:52:42;42.27;;;11.80;;
22417;SDS011;11376;50.932;4.442;2023-04-08T01:55:09;34.47;;;11.20;;
22417;SDS011;11376;50.932;4.442;2023-04-08T01:57:36;32.40;;;12.00;;
22417;SDS011;11376;50.932;4.442;2023-04-08T02:00:04;35.90;;;12.23;;
22417;SDS011;11376;50.932;4.442;2023-04-08T02:02:36;32.20;;;11.90;;
22417;SDS011;11376;50.932;4.442;2023-04-08T02:05:04;33.50;;;13.13;;
22417;SDS011;11376;50.932;4.442;2023-04-08T02:07:30;32.80;;;12.43;;
22417;SDS011;11376;50.932;4.442;2023-04-08T02:09:56;33.93;;;12.83;;
22417;SDS011;11376;50.932;4.442;2023-04-08T02:12:22;31.90;;;12.37;;
22417;SDS011;11376;50.932;4.442;2023-04-08T02:14:48;26.57;;;12.40;;
22417;SDS011;11376;50.932;4.442;2023-04-08T02:20:10;33.07;;;13.10;;
22417;SDS011;11376;50.932;4.442;2023-04-08T02:25:33;33.87;;;13.70;;
22417;SDS011;11376;50.932;4.442;2023-04-08T02:28:05;36.53;;;13.63;;
22417;SDS011;11376;50.932;4.442;2023-04-08T02:30:34;37.53;;;14.43;;
22417;SDS011;11376;50.932;4.442;2023-04-08T02:33:02;36.10;;;14.43;;
22417;SDS011;11376;50.932;4.442;2023-04-08T02:35:29;37.40;;;14.83;;
22417;SDS011;11376;50.932;4.442;2023-04-08T02:37:55;36.87;;;14.20;;
22417;SDS011;11376;50.932;4.442;2023-04-08T02:40:28;38.53;;;15.17;;
22417;SDS011;11376;50.932;4.442;2023-04-08T02:42:55;39.60;;;14.80;;
22417;SDS011;11376;50.932;4.442;2023-04-08T02:45:21;39.73;;;14.53;;
22417;SDS011;11376;50.932;4.442;2023-04-08T02:47:51;38.60;;;14.70;;
22417;SDS011;11376;50.932;4.442;2023-04-08T02:50:16;34.37;;;15.03;;
22417;SDS011;11376;50.932;4.442;2023-04-08T02:52:42;42.97;;;16.23;;
22417;SDS011;11376;50.932;4.442;2023-04-08T02:55:09;31.43;;;14.23;;
22417;SDS011;11376;50.932;4.442;2023-04-08T02:57:35;39.40;;;15.80;;
22417;SDS011;11376;50.932;4.442;2023-04-08T03:00:03;33.50;;;15.47;;
22417;SDS011;11376;50.932;4.442;2023-04-08T03:02:30;37.27;;;16.20;;
22417;SDS011;11376;50.932;4.442;2023-04-08T03:04:55;41.43;;;16.63;;
22417;SDS011;11376;50.932;4.442;2023-04-08T03:07:21;39.47;;;16.37;;
22417;SDS011;11376;50.932;4.442;2023-04-08T03:09:46;39.83;;;16.30;;
22417;SDS011;11376;50.932;4.442;2023-04-08T03:12:12;45.60;;;17.37;;
22417;SDS011;11376;50.932;4.442;2023-04-08T03:14:37;40.30;;;16.63;;
22417;SDS011;11376;50.932;4.442;2023-04-08T03:17:03;50.77;;;18.10;;
22417;SDS011;11376;50.932;4.442;2023-04-08T03:19:28;39.17;;;17.47;;
22417;SDS011;11376;50.932;4.442;2023-04-08T03:21:54;44.67;;;17.33;;
22417;SDS011;11376;50.932;4.442;2023-04-08T03:24:20;44.40;;;18.03;;
22417;SDS011;11376;50.932;4.442;2023-04-08T03:26:45;50.00;;;19.63;;
22417;SDS011;11376;50.932;4.442;2023-04-08T03:29:11;44.40;;;19.17;;
22417;SDS011;11376;50.932;4.442;2023-04-08T03:31:37;47.50;;;19.10;;
22417;SDS011;11376;50.932;4.442;2023-04-08T03:34:02;44.53;;;17.87;;
22417;SDS011;11376;50.932;4.442;2023-04-08T03:36:28;46.93;;;19.87;;
22417;SDS011;11376;50.932;4.442;2023-04-08T03:38:53;47.47;;;19.27;;
22417;SDS011;11376;50.932;4.442;2023-04-08T03:41:19;55.87;;;19.30;;
22417;SDS011;11376;50.932;4.442;2023-04-08T03:43:45;48.43;;;19.87;;
22417;SDS011;11376;50.932;4.442;2023-04-08T03:46:10;48.43;;;20.00;;
22417;SDS011;11376;50.932;4.442;2023-04-08T03:48:36;51.67;;;20.83;;
22417;SDS011;11376;50.932;4.442;2023-04-08T03:51:02;50.73;;;19.83;;
22417;SDS011;11376;50.932;4.442;2023-04-08T03:53:27;50.17;;;18.87;;
22417;SDS011;11376;50.932;4.442;2023-04-08T03:55:53;52.80;;;20.40;;
22417;SDS011;11376;50.932;4.442;2023-04-08T03:58:20;49.23;;;18.27;;
22417;SDS011;11376;50.932;4.442;2023-04-08T04:00:46;48.43;;;19.47;;
22417;SDS011;11376;50.932;4.442;2023-04-08T04:03:11;50.53;;;19.20;;
22417;SDS011;11376;50.932;4.442;2023-04-08T04:05:40;43.20;;;18.57;;
22417;SDS011;11376;50.932;4.442;2023-04-08T04:08:05;46.03;;;20.37;;
22417;SDS011;11376;50.932;4.442;2023-04-08T04:10:33;51.93;;;20.07;;
22417;SDS011;11376;50.932;4.442;2023-04-08T04:12:59;48.23;;;18.50;;
22417;SDS011;11376;50.932;4.442;2023-04-08T04:15:24;47.93;;;19.43;;
22417;SDS011;11376;50.932;4.442;2023-04-08T04:17:50;43.47;;;18.83;;
22417;SDS011;11376;50.932;4.442;2023-04-08T04:20:16;42.57;;;18.40;;
22417;SDS011;11376;50.932;4.442;2023-04-08T04:22:42;48.00;;;19.33;;
22417;SDS011;11376;50.932;4.442;2023-04-08T04:25:07;51.50;;;20.33;;
22417;SDS011;11376;50.932;4.442;2023-04-08T04:27:33;49.63;;;19.27;;
22417;SDS011;11376;50.932;4.442;2023-04-08T04:30:00;54.60;;;19.87;;
22417;SDS011;11376;50.932;4.442;2023-04-08T04:32:26;57.87;;;20.27;;
22417;SDS011;11376;50.932;4.442;2023-04-08T04:34:52;47.63;;;19.13;;
22417;SDS011;11376;50.932;4.442;2023-04-08T04:37:18;50.90;;;19.83;;
22417;SDS011;11376;50.932;4.442;2023-04-08T04:39:43;47.73;;;20.40;;
22417;SDS011;11376;50.932;4.442;2023-04-08T04:42:09;50.53;;;20.63;;
22417;SDS011;11376;50.932;4.442;2023-04-08T04:44:35;50.33;;;21.73;;
22417;SDS011;11376;50.932;4.442;2023-04-08T04:47:01;46.33;;;21.40;;
22417;SDS011;11376;50.932;4.442;2023-04-08T04:49:26;55.83;;;21.90;;
22417;SDS011;11376;50.932;4.442;2023-04-08T04:51:52;49.00;;;21.00;;
22417;SDS011;11376;50.932;4.442;2023-04-08T04:54:17;54.67;;;22.73;;
22417;SDS011;11376;50.932;4.442;2023-04-08T04:56:43;47.70;;;21.13;;
22417;SDS011;11376;50.932;4.442;2023-04-08T04:59:08;46.60;;;21.10;;
22417;SDS011;11376;50.932;4.442;2023-04-08T05:01:34;53.20;;;21.97;;
22417;SDS011;11376;50.932;4.442;2023-04-08T05:04:00;57.13;;;21.57;;
22417;SDS011;11376;50.932;4.442;2023-04-08T05:06:25;56.57;;;21.73;;
22417;SDS011;11376;50.932;4.442;2023-04-08T05:08:51;51.40;;;20.13;;
22417;SDS011;11376;50.932;4.442;2023-04-08T05:11:17;58.10;;;20.67;;
22417;SDS011;11376;50.932;4.442;2023-04-08T05:13:43;49.77;;;20.83;;
22417;SDS011;11376;50.932;4.442;2023-04-08T05:16:09;52.43;;;20.63;;
22417;SDS011;11376;50.932;4.442;2023-04-08T05:18:35;47.93;;;19.67;;
22417;SDS011;11376;50.932;4.442;2023-04-08T05:21:01;46.00;;;20.90;;
22417;SDS011;11376;50.932;4.442;2023-04-08T05:23:27;49.10;;;20.33;;
22417;SDS011;11376;50.932;4.442;2023-04-08T05:25:52;49.20;;;19.60;;
22417;SDS011;11376;50.932;4.442;2023-04-08T05:28:18;49.73;;;20.27;;
22417;SDS011;11376;50.932;4.442;2023-04-08T05:30:48;44.70;;;18.27;;
22417;SDS011;11376;50.932;4.442;2023-04-08T05:33:15;40.57;;;18.67;;
22417;SDS011;11376;50.932;4.442;2023-04-08T05:35:40;41.70;;;19.80;;
22417;SDS011;11376;50.932;4.442;2023-04-08T05:38:06;50.80;;;19.17;;
22417;SDS011;11376;50.932;4.442;2023-04-08T05:40:32;45.27;;;19.30;;
22417;SDS011;11376;50.932;4.442;2023-04-08T05:42:57;45.33;;;19.50;;
22417;SDS011;11376;50.932;4.442;2023-04-08T05:45:23;44.07;;;19.17;;
22417;SDS011;11376;50.932;4.442;2023-04-08T05:47:48;42.90;;;18.47;;
22417;SDS011;11376;50.932;4.442;2023-04-08T05:50:14;43.60;;;19.00;;
22417;SDS011;11376;50.932;4.442;2023-04-08T05:52:43;51.83;;;19.83;;
22417;SDS011;11376;50.932;4.442;2023-04-08T05:55:10;48.70;;;20.23;;
22417;SDS011;11376;50.932;4.442;2023-04-08T05:57:36;47.50;;;20.93;;
22417;SDS011;11376;50.932;4.442;2023-04-08T06:00:03;50.33;;;19.80;;
22417;SDS011;11376;50.932;4.442;2023-04-08T06:02:30;52.77;;;19.90;;
22417;SDS011;11376;50.932;4.442;2023-04-08T06:04:56;58.80;;;23.13;;
22417;SDS011;11376;50.932;4.442;2023-04-08T06:07:21;52.83;;;22.17;;
22417;SDS011;11376;50.932;4.442;2023-04-08T06:09:47;54.57;;;22.07;;
22417;SDS011;11376;50.932;4.442;2023-04-08T06:12:12;48.43;;;21.27;;
22417;SDS011;11376;50.932;4.442;2023-04-08T06:14:38;51.27;;;21.37;;
22417;SDS011;11376;50.932;4.442;2023-04-08T06:17:03;44.13;;;20.47;;
22417;SDS011;11376;50.932;4.442;2023-04-08T06:19:29;43.80;;;20.47;;
22417;SDS011;11376;50.932;4.442;2023-04-08T06:21:54;48.33;;;20.63;;
22417;SDS011;11376;50.932;4.442;2023-04-08T06:24:23;49.17;;;20.47;;
22417;SDS011;11376;50.932;4.442;2023-04-08T06:26:50;51.50;;;21.47;;
22417;SDS011;11376;50.932;4.442;2023-04-08T06:29:17;48.53;;;20.47;;
22417;SDS011;11376;50.932;4.442;2023-04-08T06:31:42;52.70;;;20.60;;
22417;SDS011;11376;50.932;4.442;2023-04-08T06:34:08;51.17;;;20.87;;
22417;SDS011;11376;50.932;4.442;2023-04-08T06:36:34;49.97;;;20.77;;
22417;SDS011;11376;50.932;4.442;2023-04-08T06:39:00;47.53;;;21.33;;
22417;SDS011;11376;50.932;4.442;2023-04-08T06:41:26;49.83;;;21.37;;
22417;SDS011;11376;50.932;4.442;2023-04-08T06:43:51;50.00;;;21.17;;
22417;SDS011;11376;50.932;4.442;2023-04-08T06:46:17;42.23;;;20.73;;
22417;SDS011;11376;50.932;4.442;2023-04-08T06:48:42;44.27;;;21.63;;
22417;SDS011;11376;50.932;4.442;2023-04-08T06:51:08;49.30;;;19.37;;
22417;SDS011;11376;50.932;4.442;2023-04-08T06:53:34;42.03;;;19.17;;
22417;SDS011;11376;50.932;4.442;2023-04-08T06:56:00;42.57;;;19.57;;
22417;SDS011;11376;50.932;4.442;2023-04-08T06:58:26;41.33;;;20.20;;
22417;SDS011;11376;50.932;4.442;2023-04-08T07:00:52;43.27;;;18.67;;
22417;SDS011;11376;50.932;4.442;2023-04-08T07:03:19;36.17;;;18.40;;
22417;SDS011;11376;50.932;4.442;2023-04-08T07:05:45;41.40;;;19.67;;
22417;SDS011;11376;50.932;4.442;2023-04-08T07:08:11;48.00;;;21.47;;
22417;SDS011;11376;50.932;4.442;2023-04-08T07:10:38;41.83;;;20.00;;
22417;SDS011;11376;50.932;4.442;2023-04-08T07:13:04;42.80;;;21.07;;
22417;SDS011;11376;50.932;4.442;2023-04-08T07:15:29;45.60;;;20.27;;
22417;SDS011;11376;50.932;4.442;2023-04-08T07:17:55;38.80;;;19.17;;
22417;SDS011;11376;50.932;4.442;2023-04-08T07:20:21;35.60;;;17.10;;
22417;SDS011;11376;50.932;4.442;2023-04-08T07:22:48;33.90;;;17.47;;
22417;SDS011;11376;50.932;4.442;2023-04-08T07:25:14;32.23;;;16.37;;
22417;SDS011;11376;50.932;4.442;2023-04-08T07:27:40;36.77;;;16.20;;
22417;SDS011;11376;50.932;4.442;2023-04-08T07:30:05;30.00;;;15.47;;
22417;SDS011;11376;50.932;4.442;2023-04-08T07:32:32;36.53;;;16.33;;
22417;SDS011;11376;50.932;4.442;2023-04-08T07:34:58;33.33;;;15.53;;
22417;SDS011;11376;50.932;4.442;2023-04-08T07:37:25;28.40;;;15.90;;
22417;SDS011;11376;50.932;4.442;2023-04-08T07:39:51;31.73;;;15.67;;
22417;SDS011;11376;50.932;4.442;2023-04-08T07:42:16;34.37;;;16.53;;
22417;SDS011;11376;50.932;4.442;2023-04-08T07:44:42;37.27;;;17.03;;
22417;SDS011;11376;50.932;4.442;2023-04-08T07:47:09;35.37;;;16.60;;
22417;SDS011;11376;50.932;4.442;2023-04-08T07:49:35;40.17;;;17.87;;
22417;SDS011;11376;50.932;4.442;2023-04-08T07:52:01;36.60;;;16.33;;
22417;SDS011;11376;50.932;4.442;2023-04-08T07:54:27;34.67;;;15.87;;
22417;SDS011;11376;50.932;4.442;2023-04-08T07:56:54;28.80;;;16.10;;
22417;SDS011;11376;50.932;4.442;2023-04-08T07:59:21;29.63;;;15.13;;
22417;SDS011;11376;50.932;4.442;2023-04-08T08:01:46;32.90;;;15.37;;
22417;SDS011;11376;50.932;4.442;2023-04-08T08:04:12;24.87;;;14.90;;
22417;SDS011;11376;50.932;4.442;2023-04-08T08:06:38;27.40;;;15.23;;
22417;SDS011;11376;50.932;4.442;2023-04-08T08:09:03;32.57;;;16.10;;
22417;SDS011;11376;50.932;4.442;2023-04-08T08:11:29;30.73;;;16.50;;
22417;SDS011;11376;50.932;4.442;2023-04-08T08:13:55;29.77;;;16.43;;
22417;SDS011;11376;50.932;4.442;2023-04-08T08:16:21;30.33;;;15.70;;
22417;SDS011;11376;50.932;4.442;2023-04-08T08:18:46;30.20;;;15.57;;
22417;SDS011;11376;50.932;4.442;2023-04-08T08:21:12;26.40;;;14.60;;
22417;SDS011;11376;50.932;4.442;2023-04-08T08:23:38;27.37;;;14.87;;
22417;SDS011;11376;50.932;4.442;2023-04-08T08:26:05;26.23;;;13.23;;
22417;SDS011;11376;50.932;4.442;2023-04-08T08:28:33;25.57;;;14.17;;
22417;SDS011;11376;50.932;4.442;2023-04-08T08:30:59;26.60;;;13.90;;
22417;SDS011;11376;50.932;4.442;2023-04-08T08:33:25;31.27;;;14.33;;
22417;SDS011;11376;50.932;4.442;2023-04-08T08:35:50;29.03;;;14.73;;
22417;SDS011;11376;50.932;4.442;2023-04-08T08:38:16;28.37;;;14.67;;
22417;SDS011;11376;50.932;4.442;2023-04-08T08:40:43;30.43;;;15.07;;
22417;SDS011;11376;50.932;4.442;2023-04-08T08:43:09;31.33;;;15.27;;
22417;SDS011;11376;50.932;4.442;2023-04-08T08:45:41;28.00;;;14.30;;
22417;SDS011;11376;50.932;4.442;2023-04-08T08:48:07;27.27;;;14.70;;
22417;SDS011;11376;50.932;4.442;2023-04-08T08:50:33;36.00;;;16.50;;
22417;SDS011;11376;50.932;4.442;2023-04-08T08:52:59;31.60;;;17.10;;
22417;SDS011;11376;50.932;4.442;2023-04-08T08:55:28;30.50;;;16.87;;
22417;SDS011;11376;50.932;4.442;2023-04-08T08:57:59;33.53;;;18.30;;
22417;SDS011;11376;50.932;4.442;2023-04-08T09:00:35;37.13;;;19.57;;
22417;SDS011;11376;50.932;4.442;2023-04-08T09:03:18;35.23;;;20.10;;
22417;SDS011;11376;50.932;4.442;2023-04-08T09:05:51;39.47;;;20.87;;
22417;SDS011;11376;50.932;4.442;2023-04-08T09:10:51;39.27;;;22.10;;
22417;SDS011;11376;50.932;4.442;2023-04-08T09:13:17;42.83;;;21.93;;
22417;SDS011;11376;50.932;4.442;2023-04-08T09:18:47;36.80;;;21.80;;
22417;SDS011;11376;50.932;4.442;2023-04-08T09:21:14;37.90;;;21.00;;
22417;SDS011;11376;50.932;4.442;2023-04-08T09:23:41;39.40;;;22.17;;
22417;SDS011;11376;50.932;4.442;2023-04-08T09:26:13;39.23;;;21.13;;
22417;SDS011;11376;50.932;4.442;2023-04-08T09:28:40;39.70;;;21.47;;
22417;SDS011;11376;50.932;4.442;2023-04-08T09:31:16;37.57;;;21.83;;
22417;SDS011;11376;50.932;4.442;2023-04-08T09:33:44;36.30;;;21.87;;
22417;SDS011;11376;50.932;4.442;2023-04-08T09:36:11;35.80;;;22.33;;
22417;SDS011;11376;50.932;4.442;2023-04-08T09:38:37;36.13;;;20.03;;
22417;SDS011;11376;50.932;4.442;2023-04-08T09:41:03;29.63;;;17.50;;
22417;SDS011;11376;50.932;4.442;2023-04-08T09:43:40;35.33;;;18.90;;
22417;SDS011;11376;50.932;4.442;2023-04-08T09:46:13;28.17;;;16.90;;
22417;SDS011;11376;50.932;4.442;2023-04-08T09:48:39;32.37;;;18.13;;
22417;SDS011;11376;50.932;4.442;2023-04-08T09:51:11;30.53;;;17.47;;
22417;SDS011;11376;50.932;4.442;2023-04-08T09:53:41;30.20;;;16.50;;
22417;SDS011;11376;50.932;4.442;2023-04-08T09:56:12;30.67;;;17.50;;
22417;SDS011;11376;50.932;4.442;2023-04-08T09:59:02;35.10;;;18.63;;
22417;SDS011;11376;50.932;4.442;2023-04-08T10:01:37;29.60;;;17.00;;
22417;SDS011;11376;50.932;4.442;2023-04-08T10:04:04;32.23;;;18.40;;
22417;SDS011;11376;50.932;4.442;2023-04-08T10:06:33;30.33;;;17.20;;
22417;SDS011;11376;50.932;4.442;2023-04-08T10:09:01;29.67;;;16.30;;
22417;SDS011;11376;50.932;4.442;2023-04-08T10:11:28;27.63;;;14.60;;
22417;SDS011;11376;50.932;4.442;2023-04-08T10:13:54;25.43;;;15.23;;
22417;SDS011;11376;50.932;4.442;2023-04-08T10:18:48;20.97;;;12.50;;
22417;SDS011;11376;50.932;4.442;2023-04-08T10:21:36;22.17;;;12.40;;
22417;SDS011;11376;50.932;4.442;2023-04-08T10:24:09;19.13;;;12.05;;
22417;SDS011;11376;50.932;4.442;2023-04-08T10:31:47;18.13;;;11.55;;
22417;SDS011;11376;50.932;4.442;2023-04-08T10:34:16;22.53;;;12.70;;
22417;SDS011;11376;50.932;4.442;2023-04-08T10:36:43;23.40;;;13.20;;
22417;SDS011;11376;50.932;4.442;2023-04-08T10:39:09;22.93;;;12.70;;
22417;SDS011;11376;50.932;4.442;2023-04-08T10:41:45;18.43;;;11.13;;
22417;SDS011;11376;50.932;4.442;2023-04-08T10:44:18;17.67;;;10.17;;
22417;SDS011;11376;50.932;4.442;2023-04-08T10:46:46;20.93;;;11.00;;
22417;SDS011;11376;50.932;4.442;2023-04-08T10:49:13;17.17;;;10.63;;
22417;SDS011;11376;50.932;4.442;2023-04-08T10:51:39;16.73;;;10.50;;
22417;SDS011;11376;50.932;4.442;2023-04-08T10:54:06;21.40;;;10.87;;
22417;SDS011;11376;50.932;4.442;2023-04-08T10:56:34;18.17;;;10.93;;
22417;SDS011;11376;50.932;4.442;2023-04-08T10:59:00;19.53;;;12.80;;
22417;SDS011;11376;50.932;4.442;2023-04-08T11:01:26;20.00;;;12.50;;
22417;SDS011;11376;50.932;4.442;2023-04-08T11:03:53;22.23;;;12.20;;
22417;SDS011;11376;50.932;4.442;2023-04-08T11:06:19;22.07;;;12.77;;
22417;SDS011;11376;50.932;4.442;2023-04-08T11:08:45;27.80;;;13.60;;
22417;SDS011;11376;50.932;4.442;2023-04-08T11:11:11;22.73;;;13.67;;
22417;SDS011;11376;50.932;4.442;2023-04-08T11:13:40;22.20;;;13.30;;
22417;SDS011;11376;50.932;4.442;2023-04-08T11:16:09;20.33;;;13.33;;
22417;SDS011;11376;50.932;4.442;2023-04-08T11:18:35;23.67;;;13.67;;
22417;SDS011;11376;50.932;4.442;2023-04-08T11:21:02;22.23;;;13.70;;
22417;SDS011;11376;50.932;4.442;2023-04-08T11:23:32;25.20;;;14.53;;
22417;SDS011;11376;50.932;4.442;2023-04-08T11:25:58;23.30;;;13.33;;
22417;SDS011;11376;50.932;4.442;2023-04-08T11:28:24;23.67;;;13.90;;
22417;SDS011;11376;50.932;4.442;2023-04-08T11:30:50;21.07;;;12.83;;
22417;SDS011;11376;50.932;4.442;2023-04-08T11:33:17;23.23;;;12.73;;
22417;SDS011;11376;50.932;4.442;2023-04-08T11:35:43;20.42;;;10.70;;
22417;SDS011;11376;50.932;4.442;2023-04-08T11:38:09;15.32;;;8.93;;
22417;SDS011;11376;50.932;4.442;2023-04-08T11:40:35;16.40;;;8.98;;
22417;SDS011;11376;50.932;4.442;2023-04-08T11:43:08;12.27;;;8.57;;
22417;SDS011;11376;50.932;4.442;2023-04-08T11:45:38;15.43;;;8.82;;
22417;SDS011;11376;50.932;4.442;2023-04-08T11:48:08;13.20;;;8.50;;
22417;SDS011;11376;50.932;4.442;2023-04-08T11:50:35;13.95;;;8.13;;
22417;SDS011;11376;50.932;4.442;2023-04-08T11:53:01;12.90;;;8.25;;
22417;SDS011;11376;50.932;4.442;2023-04-08T11:55:27;14.95;;;8.95;;
22417;SDS011;11376;50.932;4.442;2023-04-08T11:57:54;18.38;;;9.25;;
22417;SDS011;11376;50.932;4.442;2023-04-08T12:00:26;15.65;;;9.18;;
22417;SDS011;11376;50.932;4.442;2023-04-08T12:02:52;13.48;;;8.80;;
22417;SDS011;11376;50.932;4.442;2023-04-08T12:05:18;15.10;;;8.93;;
22417;SDS011;11376;50.932;4.442;2023-04-08T12:07:43;14.82;;;9.38;;
22417;SDS011;11376;50.932;4.442;2023-04-08T12:10:09;13.65;;;8.30;;
22417;SDS011;11376;50.932;4.442;2023-04-08T12:12:36;16.20;;;8.13;;
22417;SDS011;11376;50.932;4.442;2023-04-08T12:15:02;14.60;;;8.85;;
22417;SDS011;11376;50.932;4.442;2023-04-08T12:17:28;15.20;;;8.88;;
22417;SDS011;11376;50.932;4.442;2023-04-08T12:19:54;13.98;;;9.35;;
22417;SDS011;11376;50.932;4.442;2023-04-08T12:22:20;13.20;;;8.88;;
22417;SDS011;11376;50.932;4.442;2023-04-08T12:24:46;16.23;;;9.85;;
22417;SDS011;11376;50.932;4.442;2023-04-08T12:27:12;17.13;;;8.82;;
22417;SDS011;11376;50.932;4.442;2023-04-08T12:29:38;13.15;;;9.05;;
22417;SDS011;11376;50.932;4.442;2023-04-08T12:32:03;14.63;;;9.50;;
22417;SDS011;11376;50.932;4.442;2023-04-08T12:34:29;16.25;;;9.55;;
22417;SDS011;11376;50.932;4.442;2023-04-08T12:36:55;14.25;;;10.10;;
22417;SDS011;11376;50.932;4.442;2023-04-08T12:39:21;17.15;;;10.27;;
22417;SDS011;11376;50.932;4.442;2023-04-08T12:41:47;20.70;;;11.98;;
22417;SDS011;11376;50.932;4.442;2023-04-08T12:44:12;19.35;;;12.00;;
22417;SDS011;11376;50.932;4.442;2023-04-08T12:46:38;19.15;;;11.48;;
22417;SDS011;11376;50.932;4.442;2023-04-08T12:49:03;19.80;;;11.75;;
22417;SDS011;11376;50.932;4.442;2023-04-08T12:51:29;19.40;;;11.48;;
22417;SDS011;11376;50.932;4.442;2023-04-08T12:53:55;18.25;;;11.50;;
22417;SDS011;11376;50.932;4.442;2023-04-08T12:56:20;19.52;;;12.13;;
22417;SDS011;11376;50.932;4.442;2023-04-08T12:58:46;17.65;;;10.65;;
22417;SDS011;11376;50.932;4.442;2023-04-08T13:01:12;20.48;;;11.82;;
22417;SDS011;11376;50.932;4.442;2023-04-08T13:03:38;18.38;;;11.13;;
22417;SDS011;11376;50.932;4.442;2023-04-08T13:06:03;18.08;;;11.40;;
22417;SDS011;11376;50.932;4.442;2023-04-08T13:08:29;16.77;;;11.05;;
22417;SDS011;11376;50.932;4.442;2023-04-08T13:10:55;15.80;;;10.75;;
22417;SDS011;11376;50.932;4.442;2023-04-08T13:13:20;15.32;;;9.70;;
22417;SDS011;11376;50.932;4.442;2023-04-08T13:15:46;15.18;;;9.80;;
22417;SDS011;11376;50.932;4.442;2023-04-08T13:18:11;16.52;;;10.77;;
22417;SDS011;11376;50.932;4.442;2023-04-08T13:20:37;16.80;;;9.77;;
22417;SDS011;11376;50.932;4.442;2023-04-08T13:23:03;15.30;;;10.50;;
22417;SDS011;11376;50.932;4.442;2023-04-08T13:25:28;17.15;;;10.80;;
22417;SDS011;11376;50.932;4.442;2023-04-08T13:27:54;14.77;;;10.55;;
22417;SDS011;11376;50.932;4.442;2023-04-08T13:30:20;16.45;;;10.82;;
22417;SDS011;11376;50.932;4.442;2023-04-08T13:32:45;15.73;;;10.20;;
22417;SDS011;11376;50.932;4.442;2023-04-08T13:35:11;15.20;;;11.05;;
22417;SDS011;11376;50.932;4.442;2023-04-08T13:37:37;18.23;;;11.45;;
22417;SDS011;11376;50.932;4.442;2023-04-08T13:40:02;18.08;;;12.35;;
22417;SDS011;11376;50.932;4.442;2023-04-08T13:42:28;17.25;;;11.20;;
22417;SDS011;11376;50.932;4.442;2023-04-08T13:45:00;16.98;;;10.65;;
22417;SDS011;11376;50.932;4.442;2023-04-08T13:47:28;15.25;;;11.18;;
22417;SDS011;11376;50.932;4.442;2023-04-08T13:49:53;17.55;;;11.38;;
22417;SDS011;11376;50.932;4.442;2023-04-08T13:52:19;16.73;;;11.02;;
22417;SDS011;11376;50.932;4.442;2023-04-08T13:54:45;16.20;;;11.55;;
22417;SDS011;11376;50.932;4.442;2023-04-08T13:57:10;14.88;;;11.05;;
22417;SDS011;11376;50.932;4.442;2023-04-08T13:59:36;18.75;;;11.23;;
22417;SDS011;11376;50.932;4.442;2023-04-08T14:02:02;14.77;;;11.27;;
22417;SDS011;11376;50.932;4.442;2023-04-08T14:04:28;17.58;;;11.07;;
22417;SDS011;11376;50.932;4.442;2023-04-08T14:06:53;18.90;;;11.93;;
22417;SDS011;11376;50.932;4.442;2023-04-08T14:09:21;19.02;;;12.52;;
22417;SDS011;11376;50.932;4.442;2023-04-08T14:11:47;19.02;;;13.00;;
22417;SDS011;11376;50.932;4.442;2023-04-08T14:14:13;19.65;;;13.60;;
22417;SDS011;11376;50.932;4.442;2023-04-08T14:16:38;21.63;;;14.07;;
22417;SDS011;11376;50.932;4.442;2023-04-08T14:19:05;22.02;;;13.75;;
22417;SDS011;11376;50.932;4.442;2023-04-08T14:21:31;20.67;;;13.85;;
22417;SDS011;11376;50.932;4.442;2023-04-08T14:23:56;21.17;;;13.63;;
22417;SDS011;11376;50.932;4.442;2023-04-08T14:26:22;25.00;;;13.55;;
22417;SDS011;11376;50.932;4.442;2023-04-08T14:28:48;23.27;;;13.82;;
22417;SDS011;11376;50.932;4.442;2023-04-08T14:31:14;22.02;;;13.70;;
22417;SDS011;11376;50.932;4.442;2023-04-08T14:33:40;23.83;;;14.40;;
22417;SDS011;11376;50.932;4.442;2023-04-08T14:36:06;22.02;;;14.10;;
22417;SDS011;11376;50.932;4.442;2023-04-08T14:38:32;21.17;;;13.90;;
22417;SDS011;11376;50.932;4.442;2023-04-08T14:40:58;22.05;;;13.88;;
22417;SDS011;11376;50.932;4.442;2023-04-08T14:43:23;20.08;;;13.27;;
22417;SDS011;11376;50.932;4.442;2023-04-08T14:45:49;22.35;;;13.82;;